Time;durP1;ratioP1;P1;durP2;ratioP2;P2;SDS_P1;SDS_P2;PMS_P1;PMS_P2;Temp;Humidity;BMP_temperature;BMP_pressure;BME280_temperature;BME280_humidity;BME280_pressure;Samples;Min_cycle;Max_cycle;Signal;HPM_P1;HPM_P2
2021/08/19 00:01:37;;;;;;;25.15;17.13;;;17.40;94.90;;;;;;4993753;28;20030;-79
2021/08/19 00:04:03;;;;;;;24.02;16.90;;;17.40;94.90;;;;;;4976216;28;20053;-79
2021/08/19 00:06:29;;;;;;;28.33;17.45;;;17.40;95.00;;;;;;4992585;28;20066;-79
2021/08/19 00:08:54;;;;;;;26.67;16.70;;;17.30;95.00;;;;;;5008823;28;20064;-79
2021/08/19 00:11:20;;;;;;;25.23;18.13;;;17.40;95.20;;;;;;5011642;28;20113;-79
2021/08/19 00:13:45;;;;;;;25.30;17.05;;;17.40;95.30;;;;;;4996095;28;20050;-79
2021/08/19 00:16:11;;;;;;;23.45;16.70;;;17.30;95.30;;;;;;4996367;28;20040;-79
2021/08/19 00:18:38;;;;;;;25.17;18.10;;;17.30;95.40;;;;;;4996487;28;20077;-79
2021/08/19 00:21:05;;;;;;;27.48;19.60;;;17.30;95.40;;;;;;4996328;28;20036;-79
2021/08/19 00:23:31;;;;;;;27.80;18.35;;;17.30;95.50;;;;;;5012710;28;20036;-80
2021/08/19 00:25:56;;;;;;;22.13;15.63;;;17.30;95.50;;;;;;4995760;28;20387;-80
2021/08/19 00:28:22;;;;;;;24.20;15.45;;;17.30;95.50;;;;;;4997432;28;20038;-79
2021/08/19 00:30:48;;;;;;;25.10;16.50;;;17.30;95.50;;;;;;4997078;28;20056;-79
2021/08/19 00:33:14;;;;;;;26.83;15.85;;;17.20;95.40;;;;;;4996964;28;20092;-79
2021/08/19 00:35:39;;;;;;;23.92;16.30;;;17.30;95.50;;;;;;4996087;28;20026;-79
2021/08/19 00:38:05;;;;;;;22.35;15.65;;;17.30;95.50;;;;;;4996120;28;20414;-79
2021/08/19 00:40:32;;;;;;;26.67;15.55;;;17.30;95.40;;;;;;4995957;28;20046;-80
2021/08/19 00:42:59;;;;;;;23.33;14.45;;;17.30;95.40;;;;;;4996571;28;20391;-79
2021/08/19 00:45:25;;;;;;;27.45;14.57;;;17.30;95.40;;;;;;4996926;28;20041;-79
2021/08/19 00:47:51;;;;;;;22.80;14.90;;;17.30;95.40;;;;;;4997200;28;20069;-80
2021/08/19 00:50:17;;;;;;;23.42;15.02;;;17.30;95.40;;;;;;4995727;28;20057;-79
2021/08/19 00:52:43;;;;;;;21.35;15.75;;;17.30;95.40;;;;;;4995599;28;20050;-79
2021/08/19 00:55:15;;;;;;;23.60;14.18;;;17.30;95.40;;;;;;4995272;28;20031;-79
2021/08/19 00:57:42;;;;;;;19.95;14.48;;;17.30;95.30;;;;;;5011641;28;20517;-79
2021/08/19 01:00:09;;;;;;;20.83;14.40;;;17.30;95.30;;;;;;5012004;28;20434;-79
2021/08/19 01:02:38;;;;;;;24.13;14.45;;;17.30;95.20;;;;;;4995677;28;20031;-79
2021/08/19 01:05:09;;;;;;;21.25;14.13;;;17.30;95.20;;;;;;5011871;28;20113;-79
2021/08/19 01:07:34;;;;;;;23.75;15.63;;;17.30;95.20;;;;;;4995314;28;20022;-78
2021/08/19 01:10:00;;;;;;;20.85;13.95;;;17.30;95.20;;;;;;4995208;28;20035;-78
2021/08/19 01:12:26;;;;;;;20.00;14.20;;;17.30;95.20;;;;;;5011657;28;20038;-78
2021/08/19 01:14:52;;;;;;;23.33;14.88;;;17.30;95.20;;;;;;4996941;28;20034;-78
2021/08/19 01:17:18;;;;;;;22.27;14.50;;;17.30;95.20;;;;;;4996512;28;20062;-78
2021/08/19 01:19:49;;;;;;;22.25;15.45;;;17.30;95.20;;;;;;4995220;28;20026;-78
2021/08/19 01:22:16;;;;;;;23.52;15.35;;;17.30;95.20;;;;;;5011111;28;20023;-78
2021/08/19 01:24:42;;;;;;;23.38;15.35;;;17.30;95.20;;;;;;4996291;28;20517;-78
2021/08/19 01:27:13;;;;;;;22.83;15.15;;;17.30;95.20;;;;;;4995244;28;20386;-78
2021/08/19 01:29:42;;;;;;;25.33;16.55;;;17.40;95.30;;;;;;5011444;28;20027;-77
2021/08/19 01:32:08;;;;;;;22.60;15.93;;;17.40;95.30;;;;;;4994738;28;20105;-79
2021/08/19 01:34:34;;;;;;;25.02;16.70;;;17.40;95.40;;;;;;5011299;28;20513;-78
2021/08/19 01:37:00;;;;;;;21.95;15.85;;;17.40;95.40;;;;;;5011269;28;20026;-78
2021/08/19 01:39:27;;;;;;;24.45;16.60;;;17.40;95.50;;;;;;4994883;28;20026;-78
2021/08/19 01:41:52;;;;;;;25.02;16.05;;;17.40;95.50;;;;;;5011326;28;20058;-78
2021/08/19 01:44:18;;;;;;;26.40;17.25;;;17.40;95.60;;;;;;5010938;28;20073;-78
2021/08/19 01:46:49;;;;;;;26.10;18.27;;;17.40;95.70;;;;;;4995616;28;20030;-78
2021/08/19 01:49:15;;;;;;;25.88;17.27;;;17.40;95.70;;;;;;5010866;28;20026;-78
2021/08/19 01:51:41;;;;;;;28.35;18.33;;;17.40;95.80;;;;;;5010832;28;20442;-78
2021/08/19 01:54:06;;;;;;;27.02;19.33;;;17.40;95.90;;;;;;4994214;28;20042;-78
2021/08/19 01:56:32;;;;;;;29.35;18.33;;;17.50;95.90;;;;;;4995612;28;20074;-78
2021/08/19 01:58:57;;;;;;;29.45;18.80;;;17.50;95.90;;;;;;4994448;28;20030;-77
2021/08/19 02:01:25;;;;;;;28.38;18.52;;;17.50;96.00;;;;;;4994403;28;20391;-78
2021/08/19 02:03:52;;;;;;;27.30;19.30;;;17.50;96.00;;;;;;4994379;28;20037;-78
2021/08/19 02:06:18;;;;;;;26.45;18.30;;;17.50;96.00;;;;;;4994030;28;20394;-79
2021/08/19 02:08:44;;;;;;;26.38;18.17;;;17.50;96.00;;;;;;4995822;28;20073;-79
2021/08/19 02:11:10;;;;;;;25.13;18.52;;;17.50;96.00;;;;;;4994121;28;20042;-79
2021/08/19 02:13:37;;;;;;;28.73;18.35;;;17.60;96.10;;;;;;5010244;28;20026;-79
2021/08/19 02:16:03;;;;;;;26.58;17.33;;;17.60;96.10;;;;;;4994052;28;20382;-79
2021/08/19 02:18:28;;;;;;;28.33;18.10;;;17.60;96.20;;;;;;4994342;28;20027;-78
2021/08/19 02:20:54;;;;;;;29.77;19.13;;;17.60;96.20;;;;;;4995289;28;20034;-79
2021/08/19 02:23:20;;;;;;;32.72;18.45;;;17.60;96.20;;;;;;4993918;28;20023;-79
2021/08/19 02:25:46;;;;;;;26.80;19.27;;;17.60;96.30;;;;;;4993771;28;20026;-78
2021/08/19 02:28:14;;;;;;;25.38;18.10;;;17.70;96.30;;;;;;5010351;28;20018;-79
2021/08/19 02:30:40;;;;;;;28.48;19.25;;;17.70;96.40;;;;;;4993900;28;20034;-78
2021/08/19 02:33:06;;;;;;;29.55;20.38;;;17.70;96.30;;;;;;4994349;28;20030;-79
2021/08/19 02:35:32;;;;;;;25.67;18.95;;;17.70;96.40;;;;;;5010004;28;20026;-79
2021/08/19 02:38:00;;;;;;;31.23;21.23;;;17.70;96.40;;;;;;4994950;28;20030;-79
2021/08/19 02:40:28;;;;;;;28.48;18.58;;;17.70;96.40;;;;;;5009873;28;20042;-78
2021/08/19 02:42:54;;;;;;;32.75;23.73;;;17.70;96.50;;;;;;4994725;28;20026;-78
2021/08/19 02:45:20;;;;;;;34.65;23.90;;;17.80;96.60;;;;;;4993503;28;20117;-79
2021/08/19 02:47:46;;;;;;;31.50;22.98;;;17.80;96.70;;;;;;4994610;28;20080;-78
2021/08/19 02:50:12;;;;;;;32.58;22.77;;;17.70;96.70;;;;;;4993544;28;20034;-79
2021/08/19 02:52:38;;;;;;;33.33;24.40;;;17.70;96.70;;;;;;4994560;28;20399;-78
2021/08/19 02:55:05;;;;;;;32.38;23.55;;;17.80;96.70;;;;;;5009869;28;20037;-79
2021/08/19 02:57:30;;;;;;;37.25;24.23;;;17.80;96.80;;;;;;4994548;28;20055;-79
2021/08/19 02:59:56;;;;;;;38.10;24.88;;;17.80;96.70;;;;;;4993156;28;20475;-79
2021/08/19 03:02:22;;;;;;;42.20;26.33;;;17.80;96.80;;;;;;4994350;28;20506;-79
2021/08/19 03:04:48;;;;;;;39.83;26.05;;;17.80;96.80;;;;;;4994662;28;20035;-79
2021/08/19 03:07:14;;;;;;;34.13;24.70;;;17.80;96.80;;;;;;5009646;28;20030;-79
2021/08/19 03:09:40;;;;;;;43.25;28.23;;;17.80;96.90;;;;;;4993199;28;20168;-79
2021/08/19 03:12:06;;;;;;;38.88;26.67;;;17.80;97.00;;;;;;5009159;28;20516;-79
2021/08/19 03:14:33;;;;;;;41.83;28.70;;;17.80;97.00;;;;;;5011106;28;20026;-79
2021/08/19 03:16:59;;;;;;;36.38;26.35;;;17.80;97.10;;;;;;5009446;28;20109;-79
2021/08/19 03:19:25;;;;;;;39.60;25.48;;;17.80;97.00;;;;;;5010360;28;20100;-79
2021/08/19 03:21:51;;;;;;;35.80;24.92;;;17.70;97.00;;;;;;5009253;28;20080;-78
2021/08/19 03:24:17;;;;;;;34.33;24.15;;;17.70;97.00;;;;;;4994144;28;20030;-79
2021/08/19 03:26:42;;;;;;;32.67;22.70;;;17.80;97.00;;;;;;4993214;28;20030;-79
2021/08/19 03:29:08;;;;;;;28.48;22.05;;;17.70;96.90;;;;;;4992861;28;20042;-79
2021/08/19 03:31:33;;;;;;;37.10;23.05;;;17.80;96.90;;;;;;4993021;28;20376;-79
2021/08/19 03:33:59;;;;;;;36.65;23.27;;;17.80;96.90;;;;;;5009136;28;20052;-79
2021/08/19 03:36:28;;;;;;;29.85;21.48;;;17.70;96.90;;;;;;4992620;28;20049;-78
2021/08/19 03:38:53;;;;;;;28.13;21.52;;;17.70;96.90;;;;;;4992950;28;20022;-79
2021/08/19 03:41:20;;;;;;;28.40;20.25;;;17.70;96.90;;;;;;4992741;28;20037;-79
2021/08/19 03:43:46;;;;;;;28.63;20.30;;;17.70;96.80;;;;;;4993506;28;20033;-79
2021/08/19 03:46:13;;;;;;;25.35;18.40;;;17.70;96.80;;;;;;4993098;28;20042;-79
2021/08/19 03:48:39;;;;;;;29.60;18.95;;;17.70;96.80;;;;;;5008790;28;20027;-79
2021/08/19 03:51:05;;;;;;;27.92;18.52;;;17.70;96.80;;;;;;5008849;28;20498;-79
2021/08/19 03:53:31;;;;;;;24.58;16.63;;;17.70;96.80;;;;;;4992700;28;20494;-79
2021/08/19 03:55:57;;;;;;;24.45;14.38;;;17.70;96.70;;;;;;5008883;28;20519;-79
2021/08/19 03:58:23;;;;;;;22.50;15.52;;;17.60;96.60;;;;;;4993454;28;20031;-79
2021/08/19 04:00:50;;;;;;;24.33;15.90;;;17.60;96.60;;;;;;4979769;28;20034;-79
2021/08/19 04:03:16;;;;;;;20.60;14.00;;;17.60;96.60;;;;;;4994933;28;20032;-79
2021/08/19 04:05:42;;;;;;;23.50;14.32;;;17.60;96.60;;;;;;5011021;28;20030;-79
2021/08/19 04:08:08;;;;;;;19.75;13.50;;;17.60;96.60;;;;;;5011491;28;20034;-79
2021/08/19 04:10:34;;;;;;;23.48;14.55;;;17.60;96.50;;;;;;5011984;28;20109;-79
2021/08/19 04:12:59;;;;;;;20.05;14.50;;;17.50;96.50;;;;;;5013035;28;20478;-79
2021/08/19 04:15:25;;;;;;;19.17;13.25;;;17.50;96.50;;;;;;5010926;28;20054;-79
2021/08/19 04:17:54;;;;;;;19.75;12.50;;;17.50;96.50;;;;;;5011752;28;20038;-79
2021/08/19 04:20:21;;;;;;;21.15;13.70;;;17.50;96.40;;;;;;4996297;28;20066;-79
2021/08/19 04:22:46;;;;;;;22.70;13.68;;;17.50;96.50;;;;;;5011709;28;20033;-79
2021/08/19 04:25:12;;;;;;;20.20;13.48;;;17.40;96.40;;;;;;5013139;28;20079;-79
2021/08/19 04:27:38;;;;;;;22.33;13.48;;;17.40;96.50;;;;;;5011663;28;20124;-79
2021/08/19 04:30:06;;;;;;;22.45;12.40;;;17.40;96.50;;;;;;5012832;28;20030;-79
2021/08/19 04:32:32;;;;;;;21.67;12.88;;;17.40;96.40;;;;;;5011694;28;20099;-79
2021/08/19 04:34:57;;;;;;;19.52;12.63;;;17.40;96.40;;;;;;5012870;28;20105;-79
2021/08/19 04:37:23;;;;;;;18.50;11.82;;;17.40;96.50;;;;;;5011838;28;20440;-79
2021/08/19 04:39:49;;;;;;;18.40;12.18;;;17.40;96.50;;;;;;5012790;28;20518;-79
2021/08/19 04:42:15;;;;;;;22.63;13.15;;;17.40;96.50;;;;;;4995247;28;20028;-79
2021/08/19 04:44:40;;;;;;;18.27;12.07;;;17.40;96.50;;;;;;4995106;28;20040;-79
2021/08/19 04:47:06;;;;;;;20.20;12.55;;;17.40;96.50;;;;;;5011396;28;20037;-79
2021/08/19 04:49:32;;;;;;;20.80;13.48;;;17.40;96.50;;;;;;4995590;28;20382;-79
2021/08/19 04:51:57;;;;;;;22.98;13.77;;;17.40;96.50;;;;;;4995362;28;20050;-79
2021/08/19 04:54:23;;;;;;;23.08;14.73;;;17.40;96.50;;;;;;4995273;28;20030;-79
2021/08/19 04:56:49;;;;;;;27.52;14.15;;;17.50;96.60;;;;;;4997000;28;20140;-79
2021/08/19 04:59:15;;;;;;;21.38;14.23;;;17.50;96.60;;;;;;5016279;28;20030;-79
2021/08/19 05:01:41;;;;;;;22.52;14.15;;;17.50;96.60;;;;;;4998887;28;20057;-79
2021/08/19 05:04:07;;;;;;;26.13;16.52;;;17.40;96.70;;;;;;5015275;28;20026;-79
2021/08/19 05:06:33;;;;;;;25.88;16.75;;;17.50;96.70;;;;;;5014837;28;20505;-79
2021/08/19 05:09:01;;;;;;;25.50;16.60;;;17.50;96.70;;;;;;5014810;28;20034;-79
2021/08/19 05:11:27;;;;;;;30.38;18.08;;;17.50;96.70;;;;;;5014820;28;20040;-79
2021/08/19 05:13:53;;;;;;;26.30;18.38;;;17.50;96.80;;;;;;5014958;28;20041;-79
2021/08/19 05:16:19;;;;;;;33.72;20.25;;;17.50;96.80;;;;;;5014977;28;20064;-79
2021/08/19 05:18:45;;;;;;;29.02;19.23;;;17.50;96.80;;;;;;4998537;28;20030;-79
2021/08/19 05:21:13;;;;;;;34.38;21.33;;;17.50;96.90;;;;;;5014835;28;20026;-78
2021/08/19 05:23:39;;;;;;;35.25;21.90;;;17.50;96.90;;;;;;5014789;28;20045;-78
2021/08/19 05:26:05;;;;;;;28.90;20.48;;;17.50;97.00;;;;;;4998290;28;20479;-79
2021/08/19 05:28:31;;;;;;;31.70;21.50;;;17.50;97.00;;;;;;5014484;28;20030;-79
2021/08/19 05:30:56;;;;;;;32.08;21.58;;;17.50;97.00;;;;;;5015700;28;20030;-79
2021/08/19 05:33:22;;;;;;;32.67;22.00;;;17.60;97.00;;;;;;5015678;28;20611;-79
2021/08/19 05:35:47;;;;;;;36.70;22.58;;;17.60;97.00;;;;;;5014447;28;20479;-79
2021/08/19 05:38:13;;;;;;;33.20;22.45;;;17.60;97.00;;;;;;5014601;28;20139;-79
2021/08/19 05:40:39;;;;;;;33.20;23.10;;;17.60;97.10;;;;;;5014385;28;20061;-79
2021/08/19 05:43:06;;;;;;;37.15;22.02;;;17.60;97.20;;;;;;5015460;28;20041;-79
2021/08/19 05:45:32;;;;;;;37.85;22.92;;;17.60;97.20;;;;;;4997883;28;20036;-79
2021/08/19 05:47:58;;;;;;;35.65;22.90;;;17.60;97.10;;;;;;5014325;28;20026;-79
2021/08/19 05:50:24;;;;;;;32.40;21.05;;;17.60;97.10;;;;;;5014573;28;20121;-78
2021/08/19 05:52:49;;;;;;;38.58;22.73;;;17.60;97.20;;;;;;5014203;28;20057;-79
2021/08/19 05:55:15;;;;;;;31.70;20.90;;;17.60;97.10;;;;;;5014080;28;20371;-79
2021/08/19 05:57:41;;;;;;;37.08;22.17;;;17.60;97.20;;;;;;5013761;28;20062;-79
2021/08/19 06:00:07;;;;;;;34.33;21.60;;;17.60;97.20;;;;;;5014104;28;20026;-79
2021/08/19 06:02:33;;;;;;;34.05;21.27;;;17.60;97.20;;;;;;5013828;28;20077;-79
2021/08/19 06:04:59;;;;;;;29.38;21.30;;;17.60;97.20;;;;;;5013862;28;20034;-79
2021/08/19 06:07:25;;;;;;;35.95;20.80;;;17.60;97.20;;;;;;5013202;28;20105;-79
2021/08/19 06:09:51;;;;;;;32.60;20.48;;;17.70;97.30;;;;;;5013446;28;20132;-79
2021/08/19 06:12:17;;;;;;;33.33;20.58;;;17.70;97.30;;;;;;5013510;28;20033;-79
2021/08/19 06:14:43;;;;;;;35.78;22.15;;;17.70;97.20;;;;;;5013823;28;20049;-79
2021/08/19 06:17:08;;;;;;;28.25;20.55;;;17.70;97.30;;;;;;5013633;28;20037;-79
2021/08/19 06:19:34;;;;;;;36.67;22.95;;;17.70;97.30;;;;;;5014613;28;20056;-78
2021/08/19 06:22:00;;;;;;;31.58;20.52;;;17.70;97.30;;;;;;5015131;28;20041;-78
2021/08/19 06:24:25;;;;;;;34.53;22.15;;;17.70;97.30;;;;;;4997028;28;20394;-78
2021/08/19 06:26:51;;;;;;;39.63;22.90;;;17.70;97.30;;;;;;4997336;28;20057;-78
2021/08/19 06:29:17;;;;;;;32.92;20.52;;;17.70;97.30;;;;;;5014608;28;20540;-78
2021/08/19 06:31:42;;;;;;;34.85;21.92;;;17.80;97.30;;;;;;5013052;28;20038;-78
2021/08/19 06:34:08;;;;;;;34.53;22.65;;;17.70;97.30;;;;;;5014469;28;20042;-78
2021/08/19 06:36:34;;;;;;;36.53;23.42;;;17.70;97.30;;;;;;5013283;28;20033;-78
2021/08/19 06:38:59;;;;;;;42.92;23.67;;;17.80;97.30;;;;;;5012781;28;20402;-78
2021/08/19 06:41:26;;;;;;;32.85;20.27;;;17.80;97.30;;;;;;5014157;28;20466;-78
2021/08/19 06:43:52;;;;;;;30.98;21.75;;;17.80;97.30;;;;;;4997409;28;20038;-78
2021/08/19 06:46:18;;;;;;;37.72;22.80;;;17.80;97.30;;;;;;5014791;28;20500;-78
2021/08/19 06:48:44;;;;;;;37.92;23.75;;;17.80;97.20;;;;;;5014165;28;20041;-78
2021/08/19 06:51:10;;;;;;;38.13;23.02;;;17.80;97.20;;;;;;5013125;28;20081;-77
2021/08/19 06:53:36;;;;;;;32.22;21.42;;;17.80;97.20;;;;;;5014207;28;20542;-78
2021/08/19 06:56:05;;;;;;;40.17;24.15;;;17.90;97.20;;;;;;5012873;28;20552;-80
2021/08/19 06:58:30;;;;;;;34.10;22.80;;;17.80;97.20;;;;;;5009990;28;20057;-78
2021/08/19 07:00:56;;;;;;;34.42;22.15;;;17.90;97.20;;;;;;5009086;28;20030;-78
2021/08/19 07:03:23;;;;;;;31.95;22.33;;;17.90;97.20;;;;;;4992762;28;20483;-78
2021/08/19 07:05:49;;;;;;;35.42;22.27;;;17.90;97.10;;;;;;4993408;28;20081;-78
2021/08/19 07:08:15;;;;;;;30.38;20.73;;;17.80;97.10;;;;;;4992556;28;20486;-78
2021/08/19 07:10:42;;;;;;;42.67;23.70;;;17.80;97.10;;;;;;4977198;28;20062;-78
2021/08/19 07:13:08;;;;;;;33.78;23.63;;;17.90;97.10;;;;;;4994158;28;20038;-78
2021/08/19 07:15:34;;;;;;;35.08;23.52;;;17.80;97.10;;;;;;4993231;28;20026;-78
2021/08/19 07:18:00;;;;;;;39.10;23.75;;;17.80;97.10;;;;;;4994189;28;20390;-78
2021/08/19 07:20:26;;;;;;;34.95;22.40;;;17.90;97.10;;;;;;4993044;28;20026;-78
2021/08/19 07:22:51;;;;;;;38.47;22.42;;;17.90;97.10;;;;;;4992857;28;20037;-78
2021/08/19 07:25:21;;;;;;;33.63;22.73;;;17.80;97.00;;;;;;4992713;28;20037;-77
2021/08/19 07:27:47;;;;;;;39.53;24.02;;;17.80;97.10;;;;;;4993225;28;20026;-78
2021/08/19 07:30:13;;;;;;;35.65;24.25;;;17.90;97.10;;;;;;4992515;28;20107;-78
2021/08/19 07:32:41;;;;;;;33.17;22.27;;;17.90;97.10;;;;;;4994258;28;20049;-79
2021/08/19 07:35:07;;;;;;;32.15;22.40;;;17.90;97.00;;;;;;4994028;28;20026;-78
2021/08/19 07:37:33;;;;;;;36.47;24.15;;;17.90;97.00;;;;;;4976576;28;20498;-78
2021/08/19 07:39:58;;;;;;;29.90;22.17;;;17.90;97.00;;;;;;4994143;28;20065;-78
2021/08/19 07:42:24;;;;;;;30.13;20.88;;;17.90;97.00;;;;;;4993946;28;20030;-78
2021/08/19 07:44:50;;;;;;;29.50;20.05;;;17.90;97.00;;;;;;4993916;28;20153;-78
2021/08/19 07:47:15;;;;;;;33.20;20.73;;;17.90;97.00;;;;;;4976406;28;20085;-78
2021/08/19 07:49:41;;;;;;;30.83;22.33;;;17.90;97.10;;;;;;4992944;28;20136;-80
2021/08/19 07:52:07;;;;;;;28.95;19.42;;;18.00;97.00;;;;;;4992486;28;20057;-78
2021/08/19 07:54:32;;;;;;;28.05;20.23;;;18.00;97.00;;;;;;4992661;28;20827;-78
2021/08/19 07:56:58;;;;;;;30.95;19.98;;;18.00;97.00;;;;;;4976256;28;20053;-78
2021/08/19 07:59:23;;;;;;;30.33;19.65;;;18.00;97.00;;;;;;4992325;28;20364;-78
2021/08/19 08:01:49;;;;;;;25.35;17.63;;;18.10;97.00;;;;;;4960686;28;20398;-78
2021/08/19 08:04:15;;;;;;;29.17;19.92;;;18.10;97.00;;;;;;4992264;28;20459;-78
2021/08/19 08:06:41;;;;;;;32.70;19.60;;;18.10;96.90;;;;;;4992440;28;20084;-78
2021/08/19 08:09:07;;;;;;;26.10;18.05;;;18.20;96.90;;;;;;4992337;28;20455;-78
2021/08/19 08:11:33;;;;;;;22.98;15.43;;;18.30;96.90;;;;;;4992310;28;20129;-78
2021/08/19 08:14:01;;;;;;;30.77;20.20;;;18.30;96.80;;;;;;4975993;28;20034;-78
2021/08/19 08:16:27;;;;;;;30.73;18.75;;;18.30;96.60;;;;;;4992107;28;20035;-78
2021/08/19 08:18:54;;;;;;;27.05;17.92;;;18.30;96.60;;;;;;4992226;28;20031;-78
2021/08/19 08:21:20;;;;;;;28.85;16.25;;;18.30;96.50;;;;;;4992414;28;20080;-78
2021/08/19 08:23:47;;;;;;;25.58;16.75;;;18.40;96.50;;;;;;4976225;28;20429;-78
2021/08/19 08:26:12;;;;;;;25.05;17.50;;;18.40;96.40;;;;;;4976203;28;20215;-78
2021/08/19 08:28:38;;;;;;;25.13;16.48;;;18.40;96.30;;;;;;4993492;28;20037;-78
2021/08/19 08:31:04;;;;;;;21.65;15.07;;;18.40;96.20;;;;;;4992621;28;20081;-78
2021/08/19 08:33:32;;;;;;;30.10;16.80;;;18.40;96.20;;;;;;4996067;28;20042;-78
2021/08/19 08:36:01;;;;;;;26.02;18.30;;;18.40;96.10;;;;;;4995715;28;20474;-78
2021/08/19 08:38:30;;;;;;;24.35;16.58;;;18.40;96.00;;;;;;4996152;28;20371;-80
2021/08/19 08:41:00;;;;;;;24.77;16.17;;;18.40;96.00;;;;;;4995686;28;20066;-79
2021/08/19 08:43:26;;;;;;;23.42;18.00;;;18.40;96.00;;;;;;4995950;28;20430;-79
2021/08/19 08:45:54;;;;;;;23.55;14.20;;;18.40;96.00;;;;;;4995730;28;20062;-79
2021/08/19 08:48:23;;;;;;;22.70;16.25;;;18.40;96.00;;;;;;4995375;28;20457;-79
2021/08/19 08:50:51;;;;;;;24.60;18.00;;;18.40;96.00;;;;;;4995698;28;20030;-79
2021/08/19 08:53:17;;;;;;;26.08;16.95;;;18.40;96.00;;;;;;4996606;28;20034;-80
2021/08/19 08:55:44;;;;;;;26.13;16.58;;;18.40;95.90;;;;;;4995763;28;20053;-79
2021/08/19 08:58:12;;;;;;;21.95;16.63;;;18.30;96.00;;;;;;4996667;28;20554;-79
2021/08/19 09:00:42;;;;;;;28.05;18.55;;;18.30;96.10;;;;;;4996174;28;20040;-79
2021/08/19 09:03:09;;;;;;;22.58;16.60;;;18.20;96.20;;;;;;4996420;28;20024;-78
2021/08/19 09:05:40;;;;;;;26.73;18.02;;;18.20;96.20;;;;;;4995539;28;20027;-78
2021/08/19 09:08:06;;;;;;;24.38;17.02;;;18.20;96.30;;;;;;4996283;28;20034;-78
2021/08/19 09:10:33;;;;;;;23.30;15.77;;;18.10;96.40;;;;;;4979066;28;20402;-77
2021/08/19 09:13:14;;;;;;;23.15;16.08;;;18.10;96.50;;;;;;4995458;28;20074;-78
2021/08/19 09:15:40;;;;;;;24.45;16.92;;;18.10;96.50;;;;;;4994849;28;20068;-78
2021/08/19 09:18:06;;;;;;;26.00;18.08;;;18.10;96.50;;;;;;4995191;28;20117;-77
2021/08/19 09:20:41;;;;;;;23.20;15.77;;;18.10;96.60;;;;;;4995163;28;20518;-78
2021/08/19 09:23:08;;;;;;;24.48;16.25;;;18.10;96.60;;;;;;4997130;28;20038;-79
2021/08/19 09:25:38;;;;;;;22.83;14.80;;;18.10;96.50;;;;;;4994555;28;20022;-78
2021/08/19 09:28:24;;;;;;;23.60;14.63;;;18.10;96.50;;;;;;4995184;28;20018;-79
2021/08/19 09:30:55;;;;;;;20.92;14.75;;;18.10;96.50;;;;;;4994893;28;20042;-78
2021/08/19 09:33:27;;;;;;;21.70;15.63;;;18.10;96.60;;;;;;4996022;28;20042;-78
2021/08/19 09:35:58;;;;;;;22.33;16.98;;;18.10;96.60;;;;;;4998234;28;20047;-78
2021/08/19 09:38:34;;;;;;;23.27;17.15;;;18.00;96.60;;;;;;5012152;28;20018;-78
2021/08/19 09:41:17;;;;;;;20.67;15.98;;;18.10;96.70;;;;;;5009694;28;20045;-78
2021/08/19 09:43:47;;;;;;;25.52;16.27;;;18.10;96.80;;;;;;5011171;28;20065;-78
2021/08/19 09:46:18;;;;;;;24.80;15.60;;;18.10;96.80;;;;;;5013059;28;20030;-79
2021/08/19 09:48:44;;;;;;;19.40;13.13;;;18.20;96.90;;;;;;5011135;28;20076;-78
2021/08/19 09:51:12;;;;;;;21.05;15.20;;;18.30;96.80;;;;;;5012177;28;20030;-78
2021/08/19 09:53:43;;;;;;;20.00;14.55;;;18.30;96.60;;;;;;4999596;28;20436;-78
2021/08/19 09:56:13;;;;;;;19.45;13.27;;;18.40;96.60;;;;;;5019016;28;20030;-79
2021/08/19 09:58:38;;;;;;;17.70;12.15;;;18.50;96.60;;;;;;4994652;28;20046;-79
2021/08/19 10:01:04;;;;;;;17.58;12.18;;;18.60;96.40;;;;;;4977388;28;20089;-79
2021/08/19 10:03:30;;;;;;;20.33;11.73;;;18.70;96.40;;;;;;4978176;28;20113;-78
2021/08/19 10:05:56;;;;;;;15.35;11.20;;;18.80;96.00;;;;;;4993864;28;20030;-79
2021/08/19 10:08:23;;;;;;;13.23;9.88;;;18.90;95.60;;;;;;4978040;28;20026;-79
2021/08/19 10:10:55;;;;;;;15.82;10.02;;;19.00;95.10;;;;;;4994370;28;20026;-79
2021/08/19 10:13:22;;;;;;;16.27;9.43;;;19.10;95.10;;;;;;4994089;28;20030;-78
2021/08/19 10:15:52;;;;;;;14.80;10.25;;;19.10;94.90;;;;;;4994126;28;20487;-79
2021/08/19 10:18:22;;;;;;;17.95;9.40;;;19.10;94.50;;;;;;4994120;28;20368;-79
2021/08/19 10:20:58;;;;;;;12.98;9.00;;;19.10;94.40;;;;;;4995302;28;20031;-79
2021/08/19 10:23:24;;;;;;;13.77;10.18;;;19.10;94.30;;;;;;4995202;28;20022;-79
2021/08/19 10:26:01;;;;;;;18.00;10.95;;;19.10;94.20;;;;;;4999120;28;20018;-79
2021/08/19 10:28:26;;;;;;;13.98;9.93;;;19.10;94.10;;;;;;5009929;28;20541;-79
2021/08/19 10:30:58;;;;;;;15.18;11.13;;;19.10;94.10;;;;;;4997341;28;20126;-79
2021/08/19 10:33:36;;;;;;;14.25;10.60;;;19.20;93.90;;;;;;5013121;28;20578;-79
2021/08/19 10:36:24;;;;;;;14.45;9.15;;;19.20;93.90;;;;;;5014144;28;20478;-79
2021/08/19 10:38:50;;;;;;;13.80;9.77;;;19.30;93.80;;;;;;5012751;28;20033;-79
2021/08/19 10:41:48;;;;;;;15.00;10.60;;;19.30;93.80;;;;;;5013277;28;20030;-79
2021/08/19 10:44:14;;;;;;;16.65;11.07;;;19.30;93.70;;;;;;5005348;28;20036;-79
2021/08/19 10:46:46;;;;;;;16.45;10.35;;;19.30;93.40;;;;;;5014113;28;20072;-79
2021/08/19 10:49:33;;;;;;;15.20;11.52;;;19.30;93.30;;;;;;5012855;28;20022;-79
2021/08/19 10:52:07;;;;;;;13.77;10.13;;;19.30;93.30;;;;;;5012840;28;20038;-79
2021/08/19 10:54:41;;;;;;;15.60;10.95;;;19.30;93.40;;;;;;5012834;28;20083;-79
2021/08/19 10:57:30;;;;;;;16.30;12.05;;;19.30;93.10;;;;;;5012978;28;20084;-79
2021/08/19 11:00:00;;;;;;;16.83;12.95;;;19.30;93.00;;;;;;5014167;28;20014;-79
2021/08/19 11:02:46;;;;;;;15.52;12.30;;;19.20;92.90;;;;;;5014304;28;20033;-79
2021/08/19 11:05:21;;;;;;;14.52;10.90;;;19.20;93.10;;;;;;5012926;28;20029;-79
2021/08/19 11:07:54;;;;;;;15.45;11.45;;;19.10;93.20;;;;;;5013700;28;20030;-79
2021/08/19 11:10:28;;;;;;;17.77;12.27;;;19.20;93.20;;;;;;5012744;28;20474;-79
2021/08/19 11:13:15;;;;;;;15.95;12.00;;;19.10;93.10;;;;;;5012840;28;20045;-79
2021/08/19 11:15:49;;;;;;;14.23;11.52;;;19.10;93.20;;;;;;5012575;28;20034;-79
2021/08/19 11:18:29;;;;;;;15.73;11.27;;;19.10;93.20;;;;;;5013730;28;20030;-79
2021/08/19 11:20:55;;;;;;;19.83;13.73;;;19.00;93.20;;;;;;5012439;28;20101;-79
2021/08/19 11:23:28;;;;;;;18.05;12.93;;;19.00;93.20;;;;;;5013985;28;20029;-79
2021/08/19 11:26:00;;;;;;;19.17;13.52;;;19.00;93.30;;;;;;5013795;28;20078;-79
2021/08/19 11:28:39;;;;;;;18.55;13.82;;;19.00;93.30;;;;;;5012360;28;20029;-79
2021/08/19 11:31:20;;;;;;;17.23;13.60;;;18.90;93.30;;;;;;5012806;28;20014;-79
2021/08/19 11:33:47;;;;;;;15.02;12.63;;;18.90;93.40;;;;;;5012621;28;20518;-79
2021/08/19 11:36:14;;;;;;;17.60;12.68;;;18.90;93.40;;;;;;5014422;28;20041;-79
2021/08/19 11:38:41;;;;;;;16.67;13.30;;;18.90;93.50;;;;;;5000610;28;20026;-79
2021/08/19 11:41:21;;;;;;;16.38;13.45;;;18.80;93.50;;;;;;5013398;28;20030;-79
2021/08/19 11:43:47;;;;;;;16.00;13.07;;;18.80;93.60;;;;;;5016234;28;20026;-79
2021/08/19 11:46:16;;;;;;;16.85;13.38;;;18.80;93.70;;;;;;5019501;28;20040;-79
2021/08/19 11:48:49;;;;;;;14.95;11.77;;;18.80;93.80;;;;;;5017871;28;20049;-79
2021/08/19 11:51:23;;;;;;;18.70;12.57;;;18.80;93.80;;;;;;5017597;28;20022;-79
2021/08/19 11:53:56;;;;;;;14.02;11.65;;;18.90;93.90;;;;;;5012571;28;20384;-79
2021/08/19 11:56:28;;;;;;;15.13;11.55;;;19.00;93.90;;;;;;5011965;28;20076;-79
2021/08/19 11:59:06;;;;;;;16.02;11.77;;;19.00;93.90;;;;;;5012193;28;20025;-79
2021/08/19 12:01:33;;;;;;;13.90;11.13;;;19.10;93.40;;;;;;5013158;28;20486;-79
2021/08/19 12:03:59;;;;;;;16.15;11.27;;;19.10;93.10;;;;;;4995612;28;20033;-79
2021/08/19 12:06:27;;;;;;;14.93;10.98;;;19.10;93.20;;;;;;5014854;28;20063;-79
2021/08/19 12:09:06;;;;;;;14.75;10.52;;;19.10;93.10;;;;;;5016148;28;20030;-79
2021/08/19 12:11:52;;;;;;;16.20;11.23;;;19.20;93.20;;;;;;5015704;28;20034;-79
2021/08/19 12:14:26;;;;;;;11.90;9.32;;;19.20;93.10;;;;;;5015289;28;20398;-79
2021/08/19 12:16:54;;;;;;;16.33;10.40;;;19.30;93.00;;;;;;5017255;28;20084;-79
2021/08/19 12:19:25;;;;;;;13.23;9.95;;;19.30;92.90;;;;;;5013582;28;20073;-79
2021/08/19 12:22:01;;;;;;;15.13;10.23;;;19.40;93.00;;;;;;5015870;28;20069;-79
2021/08/19 12:24:30;;;;;;;11.10;9.45;;;19.40;92.70;;;;;;5016381;28;20022;-79
2021/08/19 12:27:02;;;;;;;11.52;8.88;;;19.40;92.50;;;;;;5015415;28;20029;-79
2021/08/19 12:29:29;;;;;;;15.02;8.65;;;19.40;92.40;;;;;;5016599;28;20541;-79
2021/08/19 12:31:57;;;;;;;12.70;8.65;;;19.30;92.30;;;;;;5015697;28;20371;-79